Estación de Codegua

Ultimos registro cada 15 minutos 42
Estación Fecha / Hora Temperatura Humedad Lluvia Velocidad Dirección Radiación Presion
42 Codegua 02-05-2026 10:15 12,9 84,3 0 0 321 286,9 958,3
41 Codegua 02-05-2026 10:00 12 91,9 0 0 344 406,9 958,4
40 Codegua 02-05-2026 09:45 10,8 98,7 0 0 357 364,4 958,4
39 Codegua 02-05-2026 09:30 9,9 99,8 0 0 105 324,4 958,4
38 Codegua 02-05-2026 09:15 8,8 100 0 0 108 284,4 958,6
37 Codegua 02-05-2026 09:00 8,3 100 0 0 108 243,1 958,7
36 Codegua 02-05-2026 08:45 7,7 100 0 0 108 35,6 958,6
35 Codegua 02-05-2026 08:30 6,2 100 0 0 108 31,9 958,7
34 Codegua 02-05-2026 08:15 4,3 100 0 0 108 35,6 958,8
33 Codegua 02-05-2026 08:00 2,8 100 0 0 108 28,1 958,8
32 Codegua 02-05-2026 07:45 2,5 100 0 0 108 6,9 958,8
31 Codegua 02-05-2026 07:30 2,3 100 0 0 108 3,1 958,9
30 Codegua 02-05-2026 07:15 2,5 100 0 0 108 0,6 958,7
29 Codegua 02-05-2026 07:00 3,3 100 0 0 108 0,6 959
28 Codegua 02-05-2026 06:45 3,8 100 0 0 108 0,6 958,8
27 Codegua 02-05-2026 06:30 4 100 0 0 108 0,6 958,6
26 Codegua 02-05-2026 06:15 4,4 100 0 0 108 0,6 958,6
25 Codegua 02-05-2026 06:00 3,7 100 0 0 108 0,6 958,6
24 Codegua 02-05-2026 05:45 3,8 100 0 0 108 0,6 958,6
23 Codegua 02-05-2026 05:30 3,9 100 0 0 108 0,6 958,8
22 Codegua 02-05-2026 05:15 4,3 100 0 0 108 0,6 958,9
21 Codegua 02-05-2026 05:00 4,5 100 0 0 108 0,6 958,9
20 Codegua 02-05-2026 04:45 4,8 100 0 0 108 0,6 959
19 Codegua 02-05-2026 04:30 4,7 100 0 0 108 0,6 959,1
18 Codegua 02-05-2026 04:15 4,2 100 0 0 108 0,6 959,1
17 Codegua 02-05-2026 04:00 4,1 100 0 0 108 0,6 959,3
16 Codegua 02-05-2026 03:45 3,4 100 0 0 108 0,6 959,4
15 Codegua 02-05-2026 03:30 3,6 100 0 0 108 0,6 959,8
14 Codegua 02-05-2026 03:15 4 99,9 0 0 108 0,6 960
13 Codegua 02-05-2026 03:00 4,6 100 0 0 108 0,6 960,1
12 Codegua 02-05-2026 02:45 4,6 100 0 0 108 0,6 960,4
11 Codegua 02-05-2026 02:30 3,9 99,7 0 0 108 0,6 960,6
10 Codegua 02-05-2026 02:15 4,4 99,6 0 0 108 0,6 961
9 Codegua 02-05-2026 02:00 4,8 99,5 0 0 108 0,6 961
8 Codegua 02-05-2026 01:45 5,2 99,4 0 0 108 0,6 961,3
7 Codegua 02-05-2026 01:30 5,4 99,4 0 0 108 0,6 961,3
6 Codegua 02-05-2026 01:15 5 99,2 0 0 108 0,6 961,5
5 Codegua 02-05-2026 01:00 5,4 99,3 0 0 108 0,6 961,6
4 Codegua 02-05-2026 00:45 6,1 99 0 0 108 0,6 961,7
3 Codegua 02-05-2026 00:30 6,7 99,4 0 0 108 0,6 961,8
2 Codegua 02-05-2026 00:15 5,4 99,2 0 0 108 0,6 961,8
1 Codegua 02-05-2026 00:00 5,9 99,2 0 0 108 0,6 962